createdAt,value
2023-04-17T00:01:13.393Z,83.79
2023-04-17T00:03:44.818Z,83.91
2023-04-17T00:06:16.341Z,83.85
2023-04-17T00:08:47.076Z,84.03
2023-04-17T00:11:18.750Z,84.08
2023-04-17T00:13:49.794Z,83.88
2023-04-17T00:16:20.378Z,83.85
2023-04-17T00:18:51.475Z,83.97
2023-04-17T00:21:21.895Z,83.99
2023-04-17T00:23:52.381Z,84.08
2023-04-17T00:26:23.190Z,83.87
2023-04-17T00:28:53.687Z,83.80
2023-04-17T00:31:24.195Z,83.72
2023-04-17T00:33:54.686Z,83.90
2023-04-17T00:36:25.468Z,83.75
2023-04-17T00:38:56.079Z,83.65
2023-04-17T00:41:26.553Z,83.69
2023-04-17T00:43:57.023Z,83.49
2023-04-17T00:46:27.449Z,83.43
2023-04-17T00:48:57.912Z,83.37
2023-04-17T00:51:29.167Z,83.47
2023-04-17T00:54:01.422Z,83.46
2023-04-17T00:56:32.893Z,83.49
2023-04-17T00:59:05.003Z,83.58
2023-04-17T01:01:35.750Z,83.61
2023-04-17T01:04:07.260Z,83.42
2023-04-17T01:06:38.449Z,83.55
2023-04-17T01:09:09.385Z,83.30
2023-04-17T01:11:40.080Z,83.36
2023-04-17T01:14:10.728Z,83.52
2023-04-17T01:16:41.922Z,83.42
2023-04-17T01:19:15.432Z,83.59
2023-04-17T01:21:46.147Z,83.51
2023-04-17T01:24:17.231Z,83.44
2023-04-17T01:26:48.527Z,83.51
2023-04-17T01:29:19.291Z,83.75
2023-04-17T01:31:49.907Z,83.65
2023-04-17T01:34:20.469Z,83.42
2023-04-17T01:36:51.602Z,83.57
2023-04-17T01:39:22.250Z,83.44
2023-04-17T01:41:52.926Z,83.49
2023-04-17T01:44:24.038Z,83.80
2023-04-17T01:46:55.612Z,83.67
2023-04-17T01:49:26.376Z,83.85
2023-04-17T01:51:57.130Z,83.72
2023-04-17T01:54:27.489Z,83.68
2023-04-17T01:56:58.233Z,83.74
2023-04-17T01:59:29.036Z,83.60
2023-04-17T02:01:59.582Z,83.50
2023-04-17T02:04:30.260Z,83.62
2023-04-17T02:07:00.814Z,83.60
2023-04-17T02:09:31.245Z,83.55
2023-04-17T02:12:02.273Z,83.28
2023-04-17T02:14:33.692Z,83.39
2023-04-17T02:17:04.153Z,83.32
2023-04-17T02:19:34.583Z,83.27
2023-04-17T02:22:05.390Z,83.48
2023-04-17T02:24:36.125Z,83.59
2023-04-17T02:27:06.847Z,83.75
2023-04-17T02:29:37.484Z,83.75
2023-04-17T02:32:07.990Z,83.63
2023-04-17T02:34:38.533Z,83.66
2023-04-17T02:37:09.042Z,83.61
2023-04-17T02:39:40.184Z,83.62
2023-04-17T02:42:12.903Z,83.56
2023-04-17T02:44:43.364Z,83.52
2023-04-17T02:47:14.077Z,83.66
2023-04-17T02:49:44.791Z,83.83
2023-04-17T02:52:15.299Z,83.67
2023-04-17T02:54:46.330Z,83.47
2023-04-17T02:57:17.111Z,83.59
2023-04-17T02:59:47.526Z,83.60
2023-04-17T03:02:21.816Z,83.57
2023-04-17T03:04:53.044Z,83.61
2023-04-17T03:07:23.801Z,83.30
2023-04-17T03:09:57.421Z,83.47
2023-04-17T03:12:28.192Z,83.43
2023-04-17T03:14:58.959Z,83.39
2023-04-17T03:17:29.403Z,83.28
2023-04-17T03:19:59.894Z,83.43
2023-04-17T03:22:30.353Z,83.39
2023-04-17T03:25:01.285Z,83.41
2023-04-17T03:27:32.141Z,83.47
2023-04-17T03:30:02.686Z,83.49
2023-04-17T03:32:33.844Z,83.52
2023-04-17T03:35:04.407Z,83.42
2023-04-17T03:37:34.885Z,83.32
2023-04-17T03:40:07.040Z,83.39
2023-04-17T03:42:37.486Z,83.14
2023-04-17T03:45:09.980Z,83.18
2023-04-17T03:47:41.753Z,83.18
2023-04-17T03:50:13.077Z,83.24
2023-04-17T03:52:43.937Z,83.20
2023-04-17T03:55:14.920Z,83.17
2023-04-17T03:57:45.740Z,83.17
2023-04-17T04:00:17.677Z,83.13
2023-04-17T04:02:48.624Z,83.01
2023-04-17T04:05:19.264Z,83.17
2023-04-17T04:07:50.084Z,83.06
2023-04-17T04:10:21.342Z,83.18
2023-04-17T04:12:51.765Z,83.21
2023-04-17T04:15:22.223Z,83.26
2023-04-17T04:17:52.999Z,83.31
2023-04-17T04:20:23.472Z,83.32
2023-04-17T04:22:57.286Z,83.35
2023-04-17T04:25:28.889Z,83.29
2023-04-17T04:28:01.512Z,83.50
2023-04-17T04:30:35.882Z,83.47
2023-04-17T04:33:08.312Z,83.38
2023-04-17T04:35:38.923Z,83.56
2023-04-17T04:38:13.948Z,83.54
2023-04-17T04:40:52.075Z,83.02
2023-04-17T04:43:22.716Z,83.17
2023-04-17T04:45:53.436Z,83.19
2023-04-17T04:48:24.225Z,82.83
2023-04-17T04:50:55.486Z,82.44
2023-04-17T04:53:26.534Z,82.66
2023-04-17T04:55:57.250Z,82.56
2023-04-17T04:58:29.501Z,83.11
2023-04-17T05:01:00.685Z,83.26
2023-04-17T05:03:31.299Z,83.64
2023-04-17T05:06:02.063Z,83.47
2023-04-17T05:08:32.458Z,83.26
2023-04-17T05:11:02.977Z,83.42
2023-04-17T05:13:33.569Z,83.37
2023-04-17T05:16:04.863Z,83.45
2023-04-17T05:18:36.041Z,83.44
2023-04-17T05:21:07.072Z,83.57
2023-04-17T05:23:37.567Z,83.83
2023-04-17T05:26:08.083Z,83.69
2023-04-17T05:28:38.886Z,83.38
2023-04-17T05:31:09.592Z,83.36
2023-04-17T05:33:40.542Z,83.56
2023-04-17T05:36:11.541Z,83.70
2023-04-17T05:38:44.091Z,83.65
2023-04-17T05:41:15.988Z,83.60
2023-04-17T05:43:46.968Z,83.72
2023-04-17T05:46:17.523Z,83.80
2023-04-17T05:48:48.197Z,83.68
2023-04-17T05:51:18.626Z,83.64
2023-04-17T05:53:49.014Z,83.52
2023-04-17T05:56:19.709Z,83.65
2023-04-17T05:58:50.146Z,83.71
2023-04-17T06:01:22.524Z,83.64
2023-04-17T06:03:53.321Z,83.70
2023-04-17T06:06:24.957Z,83.65
2023-04-17T06:08:55.704Z,83.37
2023-04-17T06:11:26.178Z,83.08
2023-04-17T06:13:57.200Z,82.90
2023-04-17T06:16:27.705Z,82.81
2023-04-17T06:18:58.136Z,82.80
2023-04-17T06:21:28.653Z,82.92
2023-04-17T06:23:59.401Z,83.31
2023-04-17T06:26:30.465Z,82.73
2023-04-17T06:29:01.240Z,82.86
2023-04-17T06:31:31.871Z,83.25
2023-04-17T06:34:02.489Z,82.86
2023-04-17T06:36:33.325Z,82.81
2023-04-17T06:39:04.339Z,82.36
2023-04-17T06:41:34.815Z,82.61
2023-04-17T06:44:05.829Z,82.26
2023-04-17T06:46:36.631Z,82.30
2023-04-17T06:49:07.107Z,82.38
2023-04-17T06:51:37.586Z,82.40
2023-04-17T06:54:09.906Z,81.81
2023-04-17T06:56:40.766Z,81.99
2023-04-17T06:59:11.987Z,81.64
2023-04-17T07:01:42.664Z,80.78
2023-04-17T07:04:13.415Z,81.45
2023-04-17T07:06:43.911Z,81.12
2023-04-17T07:09:14.717Z,79.24
2023-04-17T07:11:45.323Z,78.95
2023-04-17T07:14:16.672Z,79.42
2023-04-17T07:16:47.416Z,79.69
2023-04-17T07:19:18.451Z,80.05
2023-04-17T07:21:49.119Z,79.74
2023-04-17T07:24:20.256Z,79.21
2023-04-17T07:26:51.196Z,78.77
2023-04-17T07:29:21.660Z,77.94
2023-04-17T07:31:52.080Z,77.02
2023-04-17T07:34:25.091Z,77.21
2023-04-17T07:36:56.186Z,77.46
2023-04-17T07:39:30.458Z,77.14
2023-04-17T07:42:02.940Z,77.69
2023-04-17T07:44:33.461Z,77.44
2023-04-17T07:47:04.304Z,77.42
2023-04-17T07:49:35.454Z,77.11
2023-04-17T07:52:06.579Z,76.58
2023-04-17T07:54:37.036Z,76.71
2023-04-17T07:57:08.225Z,76.47
2023-04-17T07:59:38.982Z,76.57
2023-04-17T08:02:10.252Z,76.51
2023-04-17T08:04:41.756Z,76.86
2023-04-17T08:07:12.599Z,76.43
2023-04-17T08:09:44.107Z,76.24
2023-04-17T08:12:15.059Z,76.69
2023-04-17T08:14:45.862Z,75.70
2023-04-17T08:17:18.158Z,75.46
2023-04-17T08:19:50.236Z,75.30
2023-04-17T08:22:21.842Z,75.29
2023-04-17T08:24:54.741Z,74.37
2023-04-17T08:27:25.682Z,74.59
2023-04-17T08:29:56.894Z,73.93
2023-04-17T08:32:27.498Z,73.23
2023-04-17T08:34:59.868Z,72.57
2023-04-17T08:37:32.053Z,72.03
2023-04-17T08:40:04.321Z,71.44
2023-04-17T08:42:38.242Z,71.73
2023-04-17T08:45:10.934Z,72.41
2023-04-17T08:47:43.056Z,71.53
2023-04-17T08:50:16.328Z,71.78
2023-04-17T08:52:48.392Z,71.27
2023-04-17T08:55:23.796Z,70.87
2023-04-17T08:58:01.446Z,70.83
2023-04-17T09:00:33.931Z,70.60
2023-04-17T09:03:07.574Z,70.29
2023-04-17T09:05:39.925Z,69.78
2023-04-17T09:08:13.343Z,70.26
2023-04-17T09:10:45.245Z,68.11
2023-04-17T09:13:17.376Z,67.03
2023-04-17T09:16:03.965Z,67.24
2023-04-17T09:18:35.475Z,66.00
2023-04-17T09:21:07.634Z,66.33
2023-04-17T09:23:51.218Z,65.26
2023-04-17T09:26:24.095Z,64.13
2023-04-17T09:29:10.618Z,64.93
2023-04-17T09:31:43.592Z,67.40
2023-04-17T09:34:16.257Z,67.51
2023-04-17T09:36:47.099Z,68.85
2023-04-17T09:39:24.056Z,68.39
2023-04-17T09:42:04.116Z,68.62
2023-04-17T09:44:36.811Z,68.36
2023-04-17T09:47:08.760Z,68.16
2023-04-17T09:49:43.489Z,67.82
2023-04-17T09:52:15.541Z,66.23
2023-04-17T09:54:47.539Z,65.67
2023-04-17T09:57:18.609Z,65.92
2023-04-17T09:59:49.709Z,66.02
2023-04-17T10:02:21.620Z,64.77
2023-04-17T10:04:53.806Z,62.93
2023-04-17T10:07:24.335Z,62.51
2023-04-17T10:09:55.581Z,63.05
2023-04-17T10:12:26.544Z,61.56
2023-04-17T10:14:57.914Z,60.01
2023-04-17T10:17:31.641Z,60.35
2023-04-17T10:20:35.922Z,60.23
2023-04-17T10:23:35.802Z,60.81
2023-04-17T10:26:43.077Z,62.73
2023-04-17T10:29:12.762Z,62.06
2023-04-17T10:32:25.334Z,62.29
2023-04-17T10:34:58.075Z,62.01
2023-04-17T10:37:59.050Z,60.19
2023-04-17T10:40:33.589Z,58.34
2023-04-17T10:43:13.050Z,56.45
2023-04-17T10:46:04.761Z,55.25
2023-04-17T10:48:38.061Z,53.02
2023-04-17T10:51:41.955Z,52.97
2023-04-17T10:54:15.334Z,52.05
2023-04-17T10:56:48.392Z,52.51
2023-04-17T10:59:20.711Z,51.82
2023-04-17T11:02:04.362Z,49.82
2023-04-17T11:04:36.035Z,50.30
2023-04-17T11:07:07.393Z,51.36
2023-04-17T11:09:38.250Z,52.58
2023-04-17T11:12:09.337Z,51.79
2023-04-17T11:14:43.641Z,52.59
2023-04-17T11:17:14.408Z,52.10
2023-04-17T11:19:46.799Z,53.29
2023-04-17T11:22:19.275Z,55.01
2023-04-17T11:24:51.459Z,55.58
2023-04-17T11:27:23.285Z,55.92
2023-04-17T11:29:54.285Z,54.56
2023-04-17T11:32:24.729Z,54.79
2023-04-17T11:34:57.338Z,54.82
2023-04-17T11:37:27.783Z,56.04
2023-04-17T11:40:11.453Z,54.90
2023-04-17T11:42:48.167Z,53.70
2023-04-17T11:45:21.686Z,55.09
2023-04-17T11:47:53.455Z,55.34
2023-04-17T11:50:29.135Z,52.98
2023-04-17T11:53:00.933Z,50.72
2023-04-17T11:55:32.201Z,48.13
2023-04-17T11:58:07.159Z,49.25
2023-04-17T12:00:38.291Z,49.72
2023-04-17T12:03:35.685Z,47.38
2023-04-17T12:06:07.450Z,46.35
2023-04-17T12:08:47.069Z,49.32
2023-04-17T12:11:26.503Z,49.87
2023-04-17T12:13:57.374Z,48.95
2023-04-17T12:16:29.356Z,48.43
2023-04-17T12:19:00.949Z,47.29
2023-04-17T12:21:31.746Z,47.98
2023-04-17T12:24:02.488Z,49.45
2023-04-17T12:26:33.171Z,48.22
2023-04-17T12:29:04.297Z,46.77
2023-04-17T12:31:35.094Z,46.80
2023-04-17T12:34:05.849Z,49.00
2023-04-17T12:36:36.482Z,47.78
2023-04-17T12:39:07.235Z,46.60
2023-04-17T12:41:37.860Z,46.32
2023-04-17T12:44:08.421Z,47.00
2023-04-17T12:46:38.993Z,47.96
2023-04-17T12:49:10.222Z,47.78
2023-04-17T12:51:41.146Z,47.59
2023-04-17T12:54:11.907Z,46.73
2023-04-17T12:56:42.618Z,46.22
2023-04-17T12:59:13.131Z,46.00
2023-04-17T13:01:43.865Z,46.23
2023-04-17T13:04:14.810Z,45.46
2023-04-17T13:06:45.894Z,46.04
2023-04-17T13:09:17.155Z,46.63
2023-04-17T13:11:47.574Z,45.59
2023-04-17T13:14:17.981Z,46.46
2023-04-17T13:16:50.630Z,47.14
2023-04-17T13:19:21.500Z,46.61
2023-04-17T13:21:52.643Z,47.70
2023-04-17T13:24:23.099Z,46.08
2023-04-17T13:26:53.806Z,45.20
2023-04-17T13:29:24.259Z,45.55
2023-04-17T13:31:55.283Z,46.80
2023-04-17T13:34:26.070Z,46.64
2023-04-17T13:36:57.444Z,46.88
2023-04-17T13:39:27.919Z,46.38
2023-04-17T13:41:58.480Z,47.21
2023-04-17T13:44:29.455Z,46.29
2023-04-17T13:47:00.688Z,45.55
2023-04-17T13:49:31.462Z,45.60
2023-04-17T13:52:03.027Z,46.19
2023-04-17T13:54:33.719Z,46.00
2023-04-17T13:57:04.246Z,45.66
2023-04-17T13:59:34.744Z,44.01
2023-04-17T14:02:05.296Z,44.65
2023-04-17T14:04:36.179Z,44.44
2023-04-17T14:07:07.128Z,45.19
2023-04-17T14:09:38.557Z,43.15
2023-04-17T14:12:09.391Z,42.88
2023-04-17T14:14:39.786Z,44.20
2023-04-17T14:17:10.525Z,43.24
2023-04-17T14:19:41.481Z,42.46
2023-04-17T14:22:11.939Z,43.05
2023-04-17T14:24:42.642Z,43.10
2023-04-17T14:27:13.258Z,43.16
2023-04-17T14:29:43.808Z,43.67
2023-04-17T14:32:14.742Z,44.06
2023-04-17T14:34:45.190Z,44.74
2023-04-17T14:37:15.685Z,44.65
2023-04-17T14:39:46.200Z,44.43
2023-04-17T14:42:16.644Z,42.38
2023-04-17T14:44:47.343Z,41.54
2023-04-17T14:47:18.286Z,42.73
2023-04-17T14:49:48.797Z,41.89
2023-04-17T14:52:19.721Z,43.33
2023-04-17T14:54:50.260Z,42.44
2023-04-17T14:57:21.042Z,44.51
2023-04-17T14:59:52.101Z,43.77
2023-04-17T15:02:22.578Z,43.10
2023-04-17T15:04:53.070Z,44.41
2023-04-17T15:07:23.607Z,44.94
2023-04-17T15:09:56.267Z,44.15
2023-04-17T15:12:26.786Z,44.37
2023-04-17T15:14:57.366Z,44.81
2023-04-17T15:17:28.237Z,45.24
2023-04-17T15:20:00.580Z,45.38
2023-04-17T15:22:31.421Z,44.46
2023-04-17T15:25:02.073Z,43.16
2023-04-17T15:27:32.555Z,44.57
2023-04-17T15:30:04.917Z,44.33
2023-04-17T15:32:35.402Z,43.92
2023-04-17T15:35:06.777Z,43.50
2023-04-17T15:37:37.738Z,43.92
2023-04-17T15:40:10.168Z,44.85
2023-04-17T15:42:40.921Z,44.70
2023-04-17T15:45:12.797Z,43.42
2023-04-17T15:47:43.295Z,43.53
2023-04-17T15:50:14.861Z,44.67
2023-04-17T15:52:45.625Z,45.26
2023-04-17T15:55:16.696Z,44.58
2023-04-17T15:57:47.679Z,44.60
2023-04-17T16:00:19.629Z,44.95
2023-04-17T16:02:51.825Z,44.86
2023-04-17T16:05:23.013Z,45.40
2023-04-17T16:07:53.513Z,44.94
2023-04-17T16:10:23.985Z,45.75
2023-04-17T16:12:54.433Z,47.23
2023-04-17T16:15:25.492Z,47.80
2023-04-17T16:17:55.978Z,48.53
2023-04-17T16:20:26.757Z,47.81
2023-04-17T16:22:57.245Z,48.13
2023-04-17T16:25:28.131Z,48.64
2023-04-17T16:27:58.546Z,48.94
2023-04-17T16:30:29.005Z,49.31
2023-04-17T16:32:59.642Z,49.91
2023-04-17T16:35:30.727Z,50.60
2023-04-17T16:38:02.073Z,51.06
2023-04-17T16:40:32.500Z,51.12
2023-04-17T16:43:03.464Z,52.12
2023-04-17T16:45:33.926Z,51.79
2023-04-17T16:48:05.058Z,51.57
2023-04-17T16:50:35.856Z,51.85
2023-04-17T16:53:06.739Z,52.34
2023-04-17T16:55:39.854Z,52.98
2023-04-17T16:58:10.864Z,53.41
2023-04-17T17:00:41.245Z,53.33
2023-04-17T17:03:12.189Z,53.41
2023-04-17T17:05:42.695Z,54.20
2023-04-17T17:08:15.295Z,55.59
2023-04-17T17:10:46.237Z,56.80
2023-04-17T17:13:16.914Z,57.97
2023-04-17T17:15:47.895Z,58.45
2023-04-17T17:18:18.306Z,59.03
2023-04-17T17:20:54.113Z,59.51
2023-04-17T17:23:24.472Z,60.21
2023-04-17T17:26:01.927Z,60.95
2023-04-17T17:28:32.474Z,61.49
2023-04-17T17:31:04.185Z,61.92
2023-04-17T17:33:35.634Z,62.23
2023-04-17T17:36:08.767Z,62.55
2023-04-17T17:38:40.615Z,62.33
2023-04-17T17:41:11.044Z,62.40
2023-04-17T17:43:41.605Z,62.88
2023-04-17T17:46:12.440Z,63.36
2023-04-17T17:48:42.900Z,63.63
2023-04-17T17:51:13.333Z,63.54
2023-04-17T17:53:44.320Z,63.46
2023-04-17T17:56:14.916Z,63.51
2023-04-17T17:58:45.542Z,63.39
2023-04-17T18:01:16.141Z,63.40
2023-04-17T18:03:49.540Z,63.93
2023-04-17T18:06:20.599Z,64.29
2023-04-17T18:08:52.900Z,64.95
2023-04-17T18:11:24.760Z,65.35
2023-04-17T18:13:56.663Z,65.92
2023-04-17T18:16:31.364Z,66.36
2023-04-17T18:19:03.608Z,66.49
2023-04-17T18:21:34.253Z,66.88
2023-04-17T18:24:04.867Z,66.49
2023-04-17T18:26:35.299Z,66.56
2023-04-17T18:29:05.825Z,66.96
2023-04-17T18:31:36.311Z,67.08
2023-04-17T18:34:07.437Z,67.31
2023-04-17T18:36:37.872Z,67.31
2023-04-17T18:39:08.595Z,67.52
2023-04-17T18:41:38.993Z,67.36
2023-04-17T18:44:09.560Z,67.17
2023-04-17T18:46:40.050Z,67.06
2023-04-17T18:49:10.761Z,67.12
2023-04-17T18:51:47.545Z,67.11
2023-04-17T18:54:18.515Z,67.18
2023-04-17T18:56:49.051Z,67.33
2023-04-17T18:59:21.232Z,67.65
2023-04-17T19:01:52.129Z,67.26
2023-04-17T19:04:22.622Z,67.28
2023-04-17T19:06:53.142Z,67.24
2023-04-17T19:09:23.946Z,66.93
2023-04-17T19:11:55.058Z,67.01
2023-04-17T19:14:25.753Z,67.14
2023-04-17T19:16:56.221Z,66.91
2023-04-17T19:19:26.618Z,67.12
2023-04-17T19:21:57.170Z,67.43
2023-04-17T19:24:27.888Z,67.64
2023-04-17T19:26:58.733Z,67.34
2023-04-17T19:29:29.858Z,66.87
2023-04-17T19:32:01.006Z,67.21
2023-04-17T19:34:31.936Z,66.86
2023-04-17T19:37:02.429Z,67.04
2023-04-17T19:39:33.100Z,67.15
2023-04-17T19:42:03.611Z,67.32
2023-04-17T19:44:34.143Z,67.11
2023-04-17T19:47:05.886Z,66.99
2023-04-17T19:49:36.391Z,66.90
2023-04-17T19:52:07.046Z,67.02
2023-04-17T19:54:37.462Z,67.50
2023-04-17T19:57:07.812Z,67.74
2023-04-17T19:59:38.569Z,67.60
2023-04-17T20:02:09.188Z,67.42
2023-04-17T20:04:40.052Z,67.37
2023-04-17T20:07:10.543Z,66.95
2023-04-17T20:09:41.453Z,67.10
2023-04-17T20:12:12.080Z,67.21
2023-04-17T20:14:42.440Z,67.25
2023-04-17T20:17:13.286Z,67.07
2023-04-17T20:19:43.735Z,66.85
2023-04-17T20:22:14.716Z,66.84
2023-04-17T20:24:45.406Z,66.97
2023-04-17T20:27:16.138Z,67.00
2023-04-17T20:29:46.713Z,67.17
2023-04-17T20:32:17.832Z,66.67
2023-04-17T20:34:48.965Z,66.90
2023-04-17T20:37:20.817Z,67.28
2023-04-17T20:39:52.914Z,67.37
2023-04-17T20:42:23.394Z,67.42
2023-04-17T20:44:55.158Z,67.42
2023-04-17T20:47:25.747Z,67.74
2023-04-17T20:49:56.261Z,67.61
2023-04-17T20:52:26.758Z,67.99
2023-04-17T20:54:57.383Z,67.89
2023-04-17T20:57:27.889Z,67.85
2023-04-17T20:59:58.828Z,68.30
2023-04-17T21:02:31.226Z,68.26
2023-04-17T21:05:03.068Z,68.49
2023-04-17T21:07:33.698Z,68.52
2023-04-17T21:10:04.533Z,68.50
2023-04-17T21:12:35.408Z,68.61
2023-04-17T21:15:06.689Z,68.76
2023-04-17T21:17:37.180Z,68.92
2023-04-17T21:20:09.469Z,68.84
2023-04-17T21:22:39.871Z,69.21
2023-04-17T21:25:11.282Z,69.43
2023-04-17T21:27:43.676Z,69.34
2023-04-17T21:30:14.586Z,69.38
2023-04-17T21:32:46.240Z,69.53
2023-04-17T21:35:17.016Z,70.00
2023-04-17T21:37:47.424Z,69.91
2023-04-17T21:40:20.080Z,70.13
2023-04-17T21:42:50.543Z,70.20
2023-04-17T21:45:21.388Z,70.57
2023-04-17T21:47:52.109Z,70.67
2023-04-17T21:50:22.671Z,70.59
2023-04-17T21:52:53.082Z,70.69
2023-04-17T21:55:23.573Z,70.54
2023-04-17T21:57:54.194Z,70.84
2023-04-17T22:00:24.781Z,70.96
2023-04-17T22:02:55.387Z,71.19
2023-04-17T22:05:26.700Z,71.50
2023-04-17T22:07:57.525Z,71.91
2023-04-17T22:10:29.453Z,72.36
2023-04-17T22:12:59.922Z,72.59
2023-04-17T22:15:30.762Z,73.07
2023-04-17T22:18:01.435Z,73.49
2023-04-17T22:20:31.851Z,73.65
2023-04-17T22:23:02.295Z,73.85
2023-04-17T22:25:33.016Z,74.21
2023-04-17T22:28:03.466Z,74.48
2023-04-17T22:30:33.898Z,74.73
2023-04-17T22:33:04.705Z,75.03
2023-04-17T22:35:35.721Z,74.82
2023-04-17T22:38:06.914Z,74.99
2023-04-17T22:40:37.642Z,75.23
2023-04-17T22:43:08.166Z,75.28
2023-04-17T22:45:38.894Z,75.54
2023-04-17T22:48:09.863Z,75.94
2023-04-17T22:50:40.705Z,76.52
2023-04-17T22:53:11.356Z,77.28
2023-04-17T22:55:42.020Z,77.27
2023-04-17T22:58:12.512Z,77.99
2023-04-17T23:00:42.884Z,78.25
2023-04-17T23:03:14.329Z,78.69
2023-04-17T23:05:45.234Z,79.30
2023-04-17T23:08:15.682Z,79.44
2023-04-17T23:10:46.115Z,79.56
2023-04-17T23:13:16.802Z,79.86
2023-04-17T23:15:47.495Z,79.89
2023-04-17T23:18:18.333Z,80.04
2023-04-17T23:20:49.340Z,80.28
2023-04-17T23:23:19.929Z,80.34
2023-04-17T23:25:50.975Z,80.51
2023-04-17T23:28:21.715Z,80.49
2023-04-17T23:30:52.361Z,80.48
2023-04-17T23:33:23.335Z,80.65
2023-04-17T23:35:53.780Z,80.67
2023-04-17T23:38:24.264Z,80.81
2023-04-17T23:40:55.058Z,80.82
2023-04-17T23:43:25.670Z,80.92
2023-04-17T23:45:57.640Z,80.99
2023-04-17T23:48:28.498Z,81.12
2023-04-17T23:50:58.971Z,80.98
2023-04-17T23:53:29.756Z,80.81
2023-04-17T23:56:00.594Z,80.71
2023-04-17T23:58:31.225Z,80.40
